sensor_id;sensor_type;location;lat;lon;timestamp;P1;durP1;ratioP1;P2;durP2;ratioP2
59555;SDS011;45374;52.746;6.304;2023-02-27T00:01:59;10.73;;;5.07;;
59555;SDS011;45374;52.746;6.304;2023-02-27T00:04:25;7.05;;;4.30;;
59555;SDS011;45374;52.746;6.304;2023-02-27T00:06:51;13.48;;;4.47;;
59555;SDS011;45374;52.746;6.304;2023-02-27T00:09:16;10.25;;;4.50;;
59555;SDS011;45374;52.746;6.304;2023-02-27T00:11:42;6.47;;;4.47;;
59555;SDS011;45374;52.746;6.304;2023-02-27T00:14:08;11.15;;;4.18;;
59555;SDS011;45374;52.746;6.304;2023-02-27T00:16:33;9.75;;;5.15;;
59555;SDS011;45374;52.746;6.304;2023-02-27T00:18:59;10.10;;;4.90;;
59555;SDS011;45374;52.746;6.304;2023-02-27T00:21:28;10.65;;;4.93;;
59555;SDS011;45374;52.746;6.304;2023-02-27T00:23:54;11.93;;;4.63;;
59555;SDS011;45374;52.746;6.304;2023-02-27T00:26:20;10.77;;;3.67;;
59555;SDS011;45374;52.746;6.304;2023-02-27T00:28:45;8.07;;;3.72;;
59555;SDS011;45374;52.746;6.304;2023-02-27T00:31:11;8.88;;;4.30;;
59555;SDS011;45374;52.746;6.304;2023-02-27T00:33:36;7.57;;;3.20;;
59555;SDS011;45374;52.746;6.304;2023-02-27T00:36:02;11.05;;;3.60;;
59555;SDS011;45374;52.746;6.304;2023-02-27T00:38:28;10.07;;;3.80;;
59555;SDS011;45374;52.746;6.304;2023-02-27T00:40:53;9.38;;;3.35;;
59555;SDS011;45374;52.746;6.304;2023-02-27T00:43:19;7.55;;;3.60;;
59555;SDS011;45374;52.746;6.304;2023-02-27T00:45:46;7.85;;;3.50;;
59555;SDS011;45374;52.746;6.304;2023-02-27T00:48:12;8.70;;;3.10;;
59555;SDS011;45374;52.746;6.304;2023-02-27T00:50:38;8.50;;;3.63;;
59555;SDS011;45374;52.746;6.304;2023-02-27T00:53:03;6.30;;;3.30;;
59555;SDS011;45374;52.746;6.304;2023-02-27T00:55:29;7.45;;;3.40;;
59555;SDS011;45374;52.746;6.304;2023-02-27T00:57:55;6.85;;;3.45;;
59555;SDS011;45374;52.746;6.304;2023-02-27T01:00:20;10.70;;;4.00;;
59555;SDS011;45374;52.746;6.304;2023-02-27T01:02:46;7.75;;;3.80;;
59555;SDS011;45374;52.746;6.304;2023-02-27T01:05:12;8.63;;;3.95;;
59555;SDS011;45374;52.746;6.304;2023-02-27T01:07:38;10.32;;;3.65;;
59555;SDS011;45374;52.746;6.304;2023-02-27T01:10:04;9.95;;;3.72;;
59555;SDS011;45374;52.746;6.304;2023-02-27T01:12:31;11.35;;;3.72;;
59555;SDS011;45374;52.746;6.304;2023-02-27T01:14:57;13.40;;;3.80;;
59555;SDS011;45374;52.746;6.304;2023-02-27T01:17:22;9.40;;;3.45;;
59555;SDS011;45374;52.746;6.304;2023-02-27T01:19:48;7.80;;;3.25;;
59555;SDS011;45374;52.746;6.304;2023-02-27T01:22:14;9.40;;;3.35;;
59555;SDS011;45374;52.746;6.304;2023-02-27T01:24:39;12.30;;;3.90;;
59555;SDS011;45374;52.746;6.304;2023-02-27T01:27:05;9.02;;;3.28;;
59555;SDS011;45374;52.746;6.304;2023-02-27T01:29:30;8.45;;;3.70;;
59555;SDS011;45374;52.746;6.304;2023-02-27T01:31:56;7.78;;;3.35;;
59555;SDS011;45374;52.746;6.304;2023-02-27T01:34:22;8.20;;;3.55;;
59555;SDS011;45374;52.746;6.304;2023-02-27T01:36:47;9.88;;;3.45;;
59555;SDS011;45374;52.746;6.304;2023-02-27T01:39:13;6.72;;;3.17;;
59555;SDS011;45374;52.746;6.304;2023-02-27T01:41:39;9.00;;;3.70;;
59555;SDS011;45374;52.746;6.304;2023-02-27T01:44:06;6.22;;;3.38;;
59555;SDS011;45374;52.746;6.304;2023-02-27T01:46:33;8.25;;;3.17;;
59555;SDS011;45374;52.746;6.304;2023-02-27T01:49:04;6.10;;;3.08;;
59555;SDS011;45374;52.746;6.304;2023-02-27T01:51:32;10.65;;;3.42;;
59555;SDS011;45374;52.746;6.304;2023-02-27T01:54:01;10.93;;;3.80;;
59555;SDS011;45374;52.746;6.304;2023-02-27T01:56:30;9.68;;;4.05;;
59555;SDS011;45374;52.746;6.304;2023-02-27T01:58:58;6.57;;;3.47;;
59555;SDS011;45374;52.746;6.304;2023-02-27T02:01:31;9.07;;;3.75;;
59555;SDS011;45374;52.746;6.304;2023-02-27T02:06:34;6.93;;;3.33;;
59555;SDS011;45374;52.746;6.304;2023-02-27T02:09:02;11.13;;;4.03;;
59555;SDS011;45374;52.746;6.304;2023-02-27T02:11:29;13.23;;;4.00;;
59555;SDS011;45374;52.746;6.304;2023-02-27T02:13:55;7.80;;;3.67;;
59555;SDS011;45374;52.746;6.304;2023-02-27T02:19:06;7.07;;;2.97;;
59555;SDS011;45374;52.746;6.304;2023-02-27T02:27:53;8.43;;;3.33;;
59555;SDS011;45374;52.746;6.304;2023-02-27T02:41:12;5.32;;;3.15;;
59555;SDS011;45374;52.746;6.304;2023-02-27T02:54:57;6.80;;;3.03;;
59555;SDS011;45374;52.746;6.304;2023-02-27T03:02:40;4.18;;;2.60;;
59555;SDS011;45374;52.746;6.304;2023-02-27T03:05:16;5.97;;;2.90;;
59555;SDS011;45374;52.746;6.304;2023-02-27T03:07:50;11.10;;;2.92;;
59555;SDS011;45374;52.746;6.304;2023-02-27T03:10:40;7.10;;;3.10;;
59555;SDS011;45374;52.746;6.304;2023-02-27T03:13:09;5.95;;;3.00;;
59555;SDS011;45374;52.746;6.304;2023-02-27T03:15:56;5.20;;;2.40;;
59555;SDS011;45374;52.746;6.304;2023-02-27T03:18:37;6.63;;;3.05;;
59555;SDS011;45374;52.746;6.304;2023-02-27T03:21:24;7.95;;;3.55;;
59555;SDS011;45374;52.746;6.304;2023-02-27T03:23:56;8.32;;;3.08;;
59555;SDS011;45374;52.746;6.304;2023-02-27T03:26:30;5.85;;;3.33;;
59555;SDS011;45374;52.746;6.304;2023-02-27T03:29:01;6.13;;;3.20;;
59555;SDS011;45374;52.746;6.304;2023-02-27T03:31:33;6.63;;;3.53;;
59555;SDS011;45374;52.746;6.304;2023-02-27T03:34:11;10.43;;;3.38;;
59555;SDS011;45374;52.746;6.304;2023-02-27T03:39:44;5.63;;;2.80;;
59555;SDS011;45374;52.746;6.304;2023-02-27T03:45:07;6.35;;;3.15;;
59555;SDS011;45374;52.746;6.304;2023-02-27T03:47:44;6.68;;;2.75;;
59555;SDS011;45374;52.746;6.304;2023-02-27T03:50:10;6.80;;;2.78;;
59555;SDS011;45374;52.746;6.304;2023-02-27T03:52:36;7.45;;;2.97;;
59555;SDS011;45374;52.746;6.304;2023-02-27T03:55:05;7.47;;;2.95;;
59555;SDS011;45374;52.746;6.304;2023-02-27T03:57:38;3.97;;;3.38;;
59555;SDS011;45374;52.746;6.304;2023-02-27T04:00:05;4.35;;;3.03;;
59555;SDS011;45374;52.746;6.304;2023-02-27T04:02:33;6.95;;;3.05;;
59555;SDS011;45374;52.746;6.304;2023-02-27T04:05:00;6.03;;;2.85;;
59555;SDS011;45374;52.746;6.304;2023-02-27T04:07:28;6.53;;;3.20;;
59555;SDS011;45374;52.746;6.304;2023-02-27T04:13:16;8.32;;;4.07;;
59555;SDS011;45374;52.746;6.304;2023-02-27T04:16:20;6.07;;;3.50;;
59555;SDS011;45374;52.746;6.304;2023-02-27T04:19:07;6.38;;;3.60;;
59555;SDS011;45374;52.746;6.304;2023-02-27T04:21:55;6.82;;;3.03;;
59555;SDS011;45374;52.746;6.304;2023-02-27T04:24:50;6.57;;;3.15;;
59555;SDS011;45374;52.746;6.304;2023-02-27T04:27:37;7.30;;;3.78;;
59555;SDS011;45374;52.746;6.304;2023-02-27T04:32:39;8.75;;;3.60;;
59555;SDS011;45374;52.746;6.304;2023-02-27T04:38:33;6.18;;;3.35;;
59555;SDS011;45374;52.746;6.304;2023-02-27T04:41:08;5.70;;;3.20;;
59555;SDS011;45374;52.746;6.304;2023-02-27T04:43:54;6.70;;;3.42;;
59555;SDS011;45374;52.746;6.304;2023-02-27T04:46:22;7.85;;;3.35;;
59555;SDS011;45374;52.746;6.304;2023-02-27T04:49:01;5.57;;;3.30;;
59555;SDS011;45374;52.746;6.304;2023-02-27T04:51:34;4.95;;;3.22;;
59555;SDS011;45374;52.746;6.304;2023-02-27T04:54:12;7.33;;;3.77;;
59555;SDS011;45374;52.746;6.304;2023-02-27T04:56:45;5.47;;;3.58;;
59555;SDS011;45374;52.746;6.304;2023-02-27T04:59:18;6.90;;;3.40;;
59555;SDS011;45374;52.746;6.304;2023-02-27T05:04:26;7.38;;;3.83;;
59555;SDS011;45374;52.746;6.304;2023-02-27T05:06:55;6.95;;;3.80;;
59555;SDS011;45374;52.746;6.304;2023-02-27T05:09:37;7.93;;;3.50;;
59555;SDS011;45374;52.746;6.304;2023-02-27T05:15:05;8.32;;;4.00;;
59555;SDS011;45374;52.746;6.304;2023-02-27T05:23:43;5.95;;;3.83;;
59555;SDS011;45374;52.746;6.304;2023-02-27T05:28:53;7.43;;;4.10;;
59555;SDS011;45374;52.746;6.304;2023-02-27T05:31:34;9.35;;;4.10;;
59555;SDS011;45374;52.746;6.304;2023-02-27T05:34:12;9.18;;;4.20;;
59555;SDS011;45374;52.746;6.304;2023-02-27T05:36:56;9.80;;;4.40;;
59555;SDS011;45374;52.746;6.304;2023-02-27T05:39:32;7.30;;;3.78;;
59555;SDS011;45374;52.746;6.304;2023-02-27T05:42:12;9.80;;;3.67;;
59555;SDS011;45374;52.746;6.304;2023-02-27T05:44:46;8.35;;;3.28;;
59555;SDS011;45374;52.746;6.304;2023-02-27T05:47:19;15.98;;;3.97;;
59555;SDS011;45374;52.746;6.304;2023-02-27T05:49:51;9.20;;;4.10;;
59555;SDS011;45374;52.746;6.304;2023-02-27T05:52:26;6.03;;;3.40;;
59555;SDS011;45374;52.746;6.304;2023-02-27T05:54:56;8.07;;;4.07;;
59555;SDS011;45374;52.746;6.304;2023-02-27T06:00:14;12.68;;;4.25;;
59555;SDS011;45374;52.746;6.304;2023-02-27T06:02:51;9.45;;;4.20;;
59555;SDS011;45374;52.746;6.304;2023-02-27T06:05:18;7.65;;;3.90;;
59555;SDS011;45374;52.746;6.304;2023-02-27T06:07:43;6.60;;;3.50;;
59555;SDS011;45374;52.746;6.304;2023-02-27T06:10:13;11.32;;;4.05;;
59555;SDS011;45374;52.746;6.304;2023-02-27T06:12:40;7.90;;;3.55;;
59555;SDS011;45374;52.746;6.304;2023-02-27T06:15:06;10.65;;;3.97;;
59555;SDS011;45374;52.746;6.304;2023-02-27T06:17:32;5.85;;;3.75;;
59555;SDS011;45374;52.746;6.304;2023-02-27T06:19:58;8.32;;;3.92;;
59555;SDS011;45374;52.746;6.304;2023-02-27T06:22:23;10.68;;;3.75;;
59555;SDS011;45374;52.746;6.304;2023-02-27T06:24:49;9.77;;;4.00;;
59555;SDS011;45374;52.746;6.304;2023-02-27T06:27:15;7.72;;;3.75;;
59555;SDS011;45374;52.746;6.304;2023-02-27T06:29:40;8.25;;;3.97;;
59555;SDS011;45374;52.746;6.304;2023-02-27T06:32:06;5.60;;;3.58;;
59555;SDS011;45374;52.746;6.304;2023-02-27T06:34:33;6.65;;;3.60;;
59555;SDS011;45374;52.746;6.304;2023-02-27T06:36:59;8.13;;;4.15;;
59555;SDS011;45374;52.746;6.304;2023-02-27T06:39:24;7.00;;;3.72;;
59555;SDS011;45374;52.746;6.304;2023-02-27T06:41:50;6.47;;;3.80;;
59555;SDS011;45374;52.746;6.304;2023-02-27T06:44:16;8.20;;;3.88;;
59555;SDS011;45374;52.746;6.304;2023-02-27T06:46:41;13.30;;;5.53;;
59555;SDS011;45374;52.746;6.304;2023-02-27T06:49:07;15.20;;;6.55;;
59555;SDS011;45374;52.746;6.304;2023-02-27T06:51:32;13.55;;;6.00;;
59555;SDS011;45374;52.746;6.304;2023-02-27T06:53:58;9.73;;;5.13;;
59555;SDS011;45374;52.746;6.304;2023-02-27T06:56:24;10.43;;;5.22;;
59555;SDS011;45374;52.746;6.304;2023-02-27T06:58:50;11.55;;;4.90;;
59555;SDS011;45374;52.746;6.304;2023-02-27T07:01:15;12.68;;;5.40;;
59555;SDS011;45374;52.746;6.304;2023-02-27T07:03:42;11.43;;;4.97;;
59555;SDS011;45374;52.746;6.304;2023-02-27T07:06:08;10.00;;;4.32;;
59555;SDS011;45374;52.746;6.304;2023-02-27T07:08:36;10.07;;;4.20;;
59555;SDS011;45374;52.746;6.304;2023-02-27T07:11:01;14.68;;;5.38;;
59555;SDS011;45374;52.746;6.304;2023-02-27T07:13:28;11.55;;;4.07;;
59555;SDS011;45374;52.746;6.304;2023-02-27T07:15:53;12.32;;;4.65;;
59555;SDS011;45374;52.746;6.304;2023-02-27T07:18:19;9.93;;;4.05;;
59555;SDS011;45374;52.746;6.304;2023-02-27T07:20:48;7.97;;;3.92;;
59555;SDS011;45374;52.746;6.304;2023-02-27T07:23:15;11.43;;;5.10;;
59555;SDS011;45374;52.746;6.304;2023-02-27T07:25:40;10.35;;;4.30;;
59555;SDS011;45374;52.746;6.304;2023-02-27T07:28:06;9.80;;;4.13;;
59555;SDS011;45374;52.746;6.304;2023-02-27T07:30:32;7.88;;;4.40;;
59555;SDS011;45374;52.746;6.304;2023-02-27T07:32:58;9.57;;;4.15;;
59555;SDS011;45374;52.746;6.304;2023-02-27T07:35:24;7.93;;;4.03;;
59555;SDS011;45374;52.746;6.304;2023-02-27T07:37:49;9.48;;;4.10;;
59555;SDS011;45374;52.746;6.304;2023-02-27T07:51:17;12.07;;;4.40;;
59555;SDS011;45374;52.746;6.304;2023-02-27T07:53:43;9.07;;;4.53;;
59555;SDS011;45374;52.746;6.304;2023-02-27T07:56:08;12.18;;;3.92;;
59555;SDS011;45374;52.746;6.304;2023-02-27T07:58:34;11.35;;;4.50;;
59555;SDS011;45374;52.746;6.304;2023-02-27T08:00:59;8.60;;;4.72;;
59555;SDS011;45374;52.746;6.304;2023-02-27T08:03:25;10.40;;;4.63;;
59555;SDS011;45374;52.746;6.304;2023-02-27T08:05:50;7.53;;;4.30;;
59555;SDS011;45374;52.746;6.304;2023-02-27T08:08:16;12.65;;;4.55;;
59555;SDS011;45374;52.746;6.304;2023-02-27T08:10:42;8.95;;;4.65;;
59555;SDS011;45374;52.746;6.304;2023-02-27T08:16:48;9.18;;;4.00;;
59555;SDS011;45374;52.746;6.304;2023-02-27T08:19:14;11.18;;;4.55;;
59555;SDS011;45374;52.746;6.304;2023-02-27T08:21:40;7.30;;;4.15;;
59555;SDS011;45374;52.746;6.304;2023-02-27T08:24:07;9.10;;;4.47;;
59555;SDS011;45374;52.746;6.304;2023-02-27T08:26:32;6.53;;;4.25;;
59555;SDS011;45374;52.746;6.304;2023-02-27T08:28:58;7.80;;;4.70;;
59555;SDS011;45374;52.746;6.304;2023-02-27T08:31:24;7.85;;;4.43;;
59555;SDS011;45374;52.746;6.304;2023-02-27T08:33:49;12.45;;;4.10;;
59555;SDS011;45374;52.746;6.304;2023-02-27T08:36:15;11.90;;;4.57;;
59555;SDS011;45374;52.746;6.304;2023-02-27T08:38:40;8.30;;;4.40;;
59555;SDS011;45374;52.746;6.304;2023-02-27T08:41:07;8.35;;;4.20;;
59555;SDS011;45374;52.746;6.304;2023-02-27T08:43:32;7.45;;;4.10;;
59555;SDS011;45374;52.746;6.304;2023-02-27T08:45:58;12.45;;;4.63;;
59555;SDS011;45374;52.746;6.304;2023-02-27T08:48:23;9.88;;;4.10;;
59555;SDS011;45374;52.746;6.304;2023-02-27T08:50:50;9.25;;;4.30;;
59555;SDS011;45374;52.746;6.304;2023-02-27T08:53:15;8.63;;;4.35;;
59555;SDS011;45374;52.746;6.304;2023-02-27T08:55:41;10.63;;;4.90;;
59555;SDS011;45374;52.746;6.304;2023-02-27T08:58:07;10.50;;;4.20;;
59555;SDS011;45374;52.746;6.304;2023-02-27T09:00:34;12.20;;;3.97;;
59555;SDS011;45374;52.746;6.304;2023-02-27T09:03:00;11.85;;;3.80;;
59555;SDS011;45374;52.746;6.304;2023-02-27T09:05:26;9.52;;;4.00;;
59555;SDS011;45374;52.746;6.304;2023-02-27T09:07:51;9.18;;;3.60;;
59555;SDS011;45374;52.746;6.304;2023-02-27T09:10:17;12.00;;;3.65;;
59555;SDS011;45374;52.746;6.304;2023-02-27T09:12:43;17.08;;;4.00;;
59555;SDS011;45374;52.746;6.304;2023-02-27T09:15:09;10.00;;;3.72;;
59555;SDS011;45374;52.746;6.304;2023-02-27T09:17:35;8.07;;;3.45;;
59555;SDS011;45374;52.746;6.304;2023-02-27T09:20:01;12.30;;;3.78;;
59555;SDS011;45374;52.746;6.304;2023-02-27T09:22:28;12.55;;;3.58;;
59555;SDS011;45374;52.746;6.304;2023-02-27T09:24:54;8.20;;;3.70;;
59555;SDS011;45374;52.746;6.304;2023-02-27T09:27:20;12.70;;;3.13;;
59555;SDS011;45374;52.746;6.304;2023-02-27T09:29:47;8.15;;;3.45;;
59555;SDS011;45374;52.746;6.304;2023-02-27T09:32:19;7.95;;;3.50;;
59555;SDS011;45374;52.746;6.304;2023-02-27T09:34:47;10.80;;;3.67;;
59555;SDS011;45374;52.746;6.304;2023-02-27T09:37:13;12.52;;;3.60;;
59555;SDS011;45374;52.746;6.304;2023-02-27T09:39:40;11.13;;;3.83;;
59555;SDS011;45374;52.746;6.304;2023-02-27T09:44:43;12.23;;;3.40;;
59555;SDS011;45374;52.746;6.304;2023-02-27T09:47:14;6.47;;;2.80;;
59555;SDS011;45374;52.746;6.304;2023-02-27T09:50:00;9.63;;;3.15;;
59555;SDS011;45374;52.746;6.304;2023-02-27T09:52:31;8.48;;;2.63;;
59555;SDS011;45374;52.746;6.304;2023-02-27T09:55:00;7.85;;;2.65;;
59555;SDS011;45374;52.746;6.304;2023-02-27T10:00:03;8.50;;;2.70;;
59555;SDS011;45374;52.746;6.304;2023-02-27T10:08:14;5.55;;;2.20;;
59555;SDS011;45374;52.746;6.304;2023-02-27T10:10:51;6.03;;;2.35;;
59555;SDS011;45374;52.746;6.304;2023-02-27T10:13:32;6.28;;;2.15;;
59555;SDS011;45374;52.746;6.304;2023-02-27T10:16:05;8.68;;;2.25;;
59555;SDS011;45374;52.746;6.304;2023-02-27T10:18:42;7.93;;;2.20;;
59555;SDS011;45374;52.746;6.304;2023-02-27T10:21:34;4.40;;;1.92;;
59555;SDS011;45374;52.746;6.304;2023-02-27T10:24:12;6.68;;;1.73;;
59555;SDS011;45374;52.746;6.304;2023-02-27T10:26:48;5.63;;;2.10;;
59555;SDS011;45374;52.746;6.304;2023-02-27T10:29:27;6.07;;;2.97;;
59555;SDS011;45374;52.746;6.304;2023-02-27T10:32:02;7.00;;;2.38;;
59555;SDS011;45374;52.746;6.304;2023-02-27T10:34:50;7.05;;;1.60;;
59555;SDS011;45374;52.746;6.304;2023-02-27T10:37:37;6.10;;;1.27;;
59555;SDS011;45374;52.746;6.304;2023-02-27T10:40:12;3.88;;;1.00;;
59555;SDS011;45374;52.746;6.304;2023-02-27T10:42:40;5.72;;;1.08;;
59555;SDS011;45374;52.746;6.304;2023-02-27T10:45:06;4.60;;;1.33;;
59555;SDS011;45374;52.746;6.304;2023-02-27T10:47:39;6.72;;;1.25;;
59555;SDS011;45374;52.746;6.304;2023-02-27T10:50:04;4.72;;;1.25;;
59555;SDS011;45374;52.746;6.304;2023-02-27T10:52:53;4.60;;;1.13;;
59555;SDS011;45374;52.746;6.304;2023-02-27T10:55:26;4.60;;;1.50;;
59555;SDS011;45374;52.746;6.304;2023-02-27T10:57:54;6.30;;;1.65;;
59555;SDS011;45374;52.746;6.304;2023-02-27T11:00:22;8.30;;;1.75;;
59555;SDS011;45374;52.746;6.304;2023-02-27T11:03:19;6.65;;;1.30;;
59555;SDS011;45374;52.746;6.304;2023-02-27T11:05:55;6.22;;;1.30;;
59555;SDS011;45374;52.746;6.304;2023-02-27T11:08:33;2.40;;;0.80;;
59555;SDS011;45374;52.746;6.304;2023-02-27T11:11:03;3.30;;;1.23;;
59555;SDS011;45374;52.746;6.304;2023-02-27T11:13:32;5.15;;;1.20;;
59555;SDS011;45374;52.746;6.304;2023-02-27T11:18:39;5.75;;;1.40;;
59555;SDS011;45374;52.746;6.304;2023-02-27T11:21:10;2.03;;;0.85;;
59555;SDS011;45374;52.746;6.304;2023-02-27T11:23:52;6.57;;;1.40;;
59555;SDS011;45374;52.746;6.304;2023-02-27T11:29:02;2.85;;;1.45;;
59555;SDS011;45374;52.746;6.304;2023-02-27T11:31:28;3.70;;;1.00;;
59555;SDS011;45374;52.746;6.304;2023-02-27T11:33:56;1.65;;;0.55;;
59555;SDS011;45374;52.746;6.304;2023-02-27T11:36:36;1.88;;;0.63;;
59555;SDS011;45374;52.746;6.304;2023-02-27T11:39:16;1.85;;;0.73;;
59555;SDS011;45374;52.746;6.304;2023-02-27T11:41:46;2.75;;;0.68;;
59555;SDS011;45374;52.746;6.304;2023-02-27T11:44:14;2.38;;;0.52;;
59555;SDS011;45374;52.746;6.304;2023-02-27T11:46:44;0.85;;;0.50;;
59555;SDS011;45374;52.746;6.304;2023-02-27T11:51:54;2.78;;;0.70;;
59555;SDS011;45374;52.746;6.304;2023-02-27T12:02:57;1.13;;;0.60;;
59555;SDS011;45374;52.746;6.304;2023-02-27T12:05:37;1.52;;;0.57;;
59555;SDS011;45374;52.746;6.304;2023-02-27T12:08:51;5.13;;;0.80;;
59555;SDS011;45374;52.746;6.304;2023-02-27T12:11:12;3.53;;;1.05;;
59555;SDS011;45374;52.746;6.304;2023-02-27T12:13:55;2.38;;;1.00;;
59555;SDS011;45374;52.746;6.304;2023-02-27T12:16:35;1.55;;;0.80;;
59555;SDS011;45374;52.746;6.304;2023-02-27T12:22:05;3.80;;;1.00;;
59555;SDS011;45374;52.746;6.304;2023-02-27T12:24:46;2.40;;;1.00;;
59555;SDS011;45374;52.746;6.304;2023-02-27T12:27:19;4.45;;;1.00;;
59555;SDS011;45374;52.746;6.304;2023-02-27T12:29:58;2.70;;;0.90;;
59555;SDS011;45374;52.746;6.304;2023-02-27T12:32:31;1.67;;;0.70;;
59555;SDS011;45374;52.746;6.304;2023-02-27T12:35:16;1.83;;;0.90;;
59555;SDS011;45374;52.746;6.304;2023-02-27T12:37:53;3.15;;;0.80;;
59555;SDS011;45374;52.746;6.304;2023-02-27T12:40:19;2.42;;;0.60;;
59555;SDS011;45374;52.746;6.304;2023-02-27T12:42:58;3.00;;;0.90;;
59555;SDS011;45374;52.746;6.304;2023-02-27T12:45:42;1.40;;;0.68;;
59555;SDS011;45374;52.746;6.304;2023-02-27T13:04:27;2.08;;;0.80;;
59555;SDS011;45374;52.746;6.304;2023-02-27T13:07:04;3.22;;;0.88;;
59555;SDS011;45374;52.746;6.304;2023-02-27T13:09:51;5.57;;;1.05;;
59555;SDS011;45374;52.746;6.304;2023-02-27T13:12:38;2.50;;;1.00;;
59555;SDS011;45374;52.746;6.304;2023-02-27T13:17:46;2.28;;;0.85;;
59555;SDS011;45374;52.746;6.304;2023-02-27T13:25:50;2.40;;;0.70;;
59555;SDS011;45374;52.746;6.304;2023-02-27T13:28:24;3.08;;;1.05;;
59555;SDS011;45374;52.746;6.304;2023-02-27T13:31:00;2.15;;;1.02;;
59555;SDS011;45374;52.746;6.304;2023-02-27T13:33:45;3.45;;;0.90;;
59555;SDS011;45374;52.746;6.304;2023-02-27T13:39:03;2.83;;;1.00;;
59555;SDS011;45374;52.746;6.304;2023-02-27T13:41:48;4.38;;;1.20;;
59555;SDS011;45374;52.746;6.304;2023-02-27T13:46:46;3.20;;;1.23;;
59555;SDS011;45374;52.746;6.304;2023-02-27T13:49:21;2.80;;;1.00;;
59555;SDS011;45374;52.746;6.304;2023-02-27T13:51:50;1.60;;;1.02;;
59555;SDS011;45374;52.746;6.304;2023-02-27T13:59:22;2.70;;;1.10;;
59555;SDS011;45374;52.746;6.304;2023-02-27T14:01:53;3.05;;;0.73;;
59555;SDS011;45374;52.746;6.304;2023-02-27T14:04:21;2.90;;;0.98;;
59555;SDS011;45374;52.746;6.304;2023-02-27T14:06:50;2.42;;;1.00;;
59555;SDS011;45374;52.746;6.304;2023-02-27T14:09:22;3.70;;;1.05;;
59555;SDS011;45374;52.746;6.304;2023-02-27T14:11:55;1.90;;;0.90;;
59555;SDS011;45374;52.746;6.304;2023-02-27T14:14:34;1.92;;;0.70;;
59555;SDS011;45374;52.746;6.304;2023-02-27T14:17:06;1.27;;;0.60;;
59555;SDS011;45374;52.746;6.304;2023-02-27T14:24:43;3.15;;;1.02;;
59555;SDS011;45374;52.746;6.304;2023-02-27T14:29:53;6.53;;;1.65;;
59555;SDS011;45374;52.746;6.304;2023-02-27T14:32:22;3.80;;;0.98;;
59555;SDS011;45374;52.746;6.304;2023-02-27T14:34:56;1.85;;;0.90;;
59555;SDS011;45374;52.746;6.304;2023-02-27T14:37:24;5.32;;;0.80;;
59555;SDS011;45374;52.746;6.304;2023-02-27T14:39:52;2.13;;;1.00;;
59555;SDS011;45374;52.746;6.304;2023-02-27T14:44:57;1.98;;;0.70;;
59555;SDS011;45374;52.746;6.304;2023-02-27T14:47:28;1.95;;;0.50;;
59555;SDS011;45374;52.746;6.304;2023-02-27T14:49:57;4.47;;;0.80;;
59555;SDS011;45374;52.746;6.304;2023-02-27T14:52:27;1.17;;;0.50;;
59555;SDS011;45374;52.746;6.304;2023-02-27T14:57:59;2.20;;;0.80;;
59555;SDS011;45374;52.746;6.304;2023-02-27T15:03:21;2.05;;;0.70;;
59555;SDS011;45374;52.746;6.304;2023-02-27T15:05:51;1.50;;;0.65;;
59555;SDS011;45374;52.746;6.304;2023-02-27T15:08:25;3.30;;;0.80;;
59555;SDS011;45374;52.746;6.304;2023-02-27T15:11:02;2.05;;;0.80;;
59555;SDS011;45374;52.746;6.304;2023-02-27T15:13:29;2.05;;;0.70;;
59555;SDS011;45374;52.746;6.304;2023-02-27T15:16:19;2.47;;;0.80;;
59555;SDS011;45374;52.746;6.304;2023-02-27T15:18:54;2.50;;;0.90;;
59555;SDS011;45374;52.746;6.304;2023-02-27T15:21:22;2.10;;;0.90;;
59555;SDS011;45374;52.746;6.304;2023-02-27T15:24:18;0.90;;;0.75;;
59555;SDS011;45374;52.746;6.304;2023-02-27T15:26:54;1.85;;;0.50;;
59555;SDS011;45374;52.746;6.304;2023-02-27T15:29:23;0.60;;;0.50;;
59555;SDS011;45374;52.746;6.304;2023-02-27T15:31:52;3.17;;;0.80;;
59555;SDS011;45374;52.746;6.304;2023-02-27T15:34:18;2.85;;;0.77;;
59555;SDS011;45374;52.746;6.304;2023-02-27T15:36:46;0.88;;;0.40;;
59555;SDS011;45374;52.746;6.304;2023-02-27T15:41:45;0.70;;;0.45;;
59555;SDS011;45374;52.746;6.304;2023-02-27T15:44:13;1.27;;;0.52;;
59555;SDS011;45374;52.746;6.304;2023-02-27T15:46:41;1.00;;;0.38;;
59555;SDS011;45374;52.746;6.304;2023-02-27T15:49:11;0.98;;;0.50;;
59555;SDS011;45374;52.746;6.304;2023-02-27T15:51:44;0.43;;;0.43;;
59555;SDS011;45374;52.746;6.304;2023-02-27T15:54:12;3.35;;;0.60;;
59555;SDS011;45374;52.746;6.304;2023-02-27T15:56:38;1.17;;;0.43;;
59555;SDS011;45374;52.746;6.304;2023-02-27T15:59:04;1.92;;;0.60;;
59555;SDS011;45374;52.746;6.304;2023-02-27T16:01:31;2.83;;;0.50;;
59555;SDS011;45374;52.746;6.304;2023-02-27T16:03:59;0.82;;;0.45;;
59555;SDS011;45374;52.746;6.304;2023-02-27T16:06:34;1.88;;;0.50;;
59555;SDS011;45374;52.746;6.304;2023-02-27T16:11:46;2.35;;;0.47;;
59555;SDS011;45374;52.746;6.304;2023-02-27T16:17:24;3.33;;;0.88;;
59555;SDS011;45374;52.746;6.304;2023-02-27T16:19:55;3.47;;;0.80;;
59555;SDS011;45374;52.746;6.304;2023-02-27T16:22:23;8.30;;;3.25;;
59555;SDS011;45374;52.746;6.304;2023-02-27T16:24:49;1.65;;;0.50;;
59555;SDS011;45374;52.746;6.304;2023-02-27T16:27:24;2.00;;;0.40;;
59555;SDS011;45374;52.746;6.304;2023-02-27T16:29:52;5.03;;;0.60;;
59555;SDS011;45374;52.746;6.304;2023-02-27T16:32:24;5.35;;;0.75;;
59555;SDS011;45374;52.746;6.304;2023-02-27T16:35:03;2.78;;;0.65;;
59555;SDS011;45374;52.746;6.304;2023-02-27T16:37:39;2.72;;;0.57;;
59555;SDS011;45374;52.746;6.304;2023-02-27T16:40:23;3.10;;;1.00;;
59555;SDS011;45374;52.746;6.304;2023-02-27T16:42:50;2.00;;;0.70;;
59555;SDS011;45374;52.746;6.304;2023-02-27T16:45:17;6.68;;;1.55;;
59555;SDS011;45374;52.746;6.304;2023-02-27T16:47:47;9.20;;;4.07;;
59555;SDS011;45374;52.746;6.304;2023-02-27T16:50:21;4.03;;;1.15;;
59555;SDS011;45374;52.746;6.304;2023-02-27T16:52:51;7.28;;;3.17;;
59555;SDS011;45374;52.746;6.304;2023-02-27T16:55:17;7.30;;;3.47;;
59555;SDS011;45374;52.746;6.304;2023-02-27T16:57:43;7.00;;;2.03;;
59555;SDS011;45374;52.746;6.304;2023-02-27T17:00:10;5.03;;;1.20;;
59555;SDS011;45374;52.746;6.304;2023-02-27T17:02:37;5.07;;;2.03;;
59555;SDS011;45374;52.746;6.304;2023-02-27T17:05:03;4.90;;;2.33;;
59555;SDS011;45374;52.746;6.304;2023-02-27T17:07:29;2.88;;;1.33;;
59555;SDS011;45374;52.746;6.304;2023-02-27T17:09:55;11.13;;;5.07;;
59555;SDS011;45374;52.746;6.304;2023-02-27T17:12:21;8.18;;;3.88;;
59555;SDS011;45374;52.746;6.304;2023-02-27T17:14:47;13.73;;;5.88;;
59555;SDS011;45374;52.746;6.304;2023-02-27T17:17:12;16.15;;;7.68;;
59555;SDS011;45374;52.746;6.304;2023-02-27T17:19:38;6.30;;;3.33;;
59555;SDS011;45374;52.746;6.304;2023-02-27T17:22:04;4.07;;;1.83;;
59555;SDS011;45374;52.746;6.304;2023-02-27T17:24:29;4.05;;;1.00;;
59555;SDS011;45374;52.746;6.304;2023-02-27T17:26:55;6.50;;;0.93;;
59555;SDS011;45374;52.746;6.304;2023-02-27T17:29:21;19.92;;;9.10;;
59555;SDS011;45374;52.746;6.304;2023-02-27T17:31:47;37.10;;;14.50;;
59555;SDS011;45374;52.746;6.304;2023-02-27T17:34:13;21.73;;;9.18;;
59555;SDS011;45374;52.746;6.304;2023-02-27T17:36:40;16.98;;;8.13;;
59555;SDS011;45374;52.746;6.304;2023-02-27T17:39:06;11.38;;;4.57;;
59555;SDS011;45374;52.746;6.304;2023-02-27T17:41:34;7.05;;;3.25;;
59555;SDS011;45374;52.746;6.304;2023-02-27T17:44:00;8.63;;;3.47;;
59555;SDS011;45374;52.746;6.304;2023-02-27T17:46:26;5.07;;;3.20;;
59555;SDS011;45374;52.746;6.304;2023-02-27T17:48:53;34.75;;;19.13;;
59555;SDS011;45374;52.746;6.304;2023-02-27T17:51:20;15.13;;;8.98;;
59555;SDS011;45374;52.746;6.304;2023-02-27T17:53:46;38.47;;;22.90;;
59555;SDS011;45374;52.746;6.304;2023-02-27T17:56:12;32.20;;;20.25;;
59555;SDS011;45374;52.746;6.304;2023-02-27T17:58:38;31.77;;;22.02;;
59555;SDS011;45374;52.746;6.304;2023-02-27T18:01:08;15.15;;;8.68;;